Time;durP1;ratioP1;P1;durP2;ratioP2;P2;SDS_P1;SDS_P2;PMS_P1;PMS_P2;Temp;Humidity;BMP_temperature;BMP_pressure;BME280_temperature;BME280_humidity;BME280_pressure;Samples;Min_cycle;Max_cycle;Signal;HPM_P1;HPM_P2
2022/12/13 00:00:09;;;;;;;;;;;-3.20;99.90;;;;;;5072865;28;20715;-76
2022/12/13 00:02:34;;;;;;;;;;;-3.20;99.90;;;;;;5071442;28;20399;-77
2022/12/13 00:05:00;;;;;;;;;;;-3.20;99.90;;;;;;5071720;28;19916;-77
2022/12/13 00:07:25;;;;;;;;;;;-3.30;99.90;;;;;;5071257;28;19916;-77
2022/12/13 00:09:51;;;;;;;;;;;-3.30;99.90;;;;;;5072780;28;19919;-77
2022/12/13 00:12:16;;;;;;;;;;;-3.40;99.90;;;;;;5070820;28;19939;-77
2022/12/13 00:14:42;;;;;;;;;;;-3.40;99.90;;;;;;5066559;28;19951;-78
2022/12/13 00:17:07;;;;;;;;;;;-3.40;99.90;;;;;;5072684;28;20288;-76
2022/12/13 00:19:33;;;;;;;;;;;-3.30;99.90;;;;;;5073337;28;19920;-79
2022/12/13 00:21:58;;;;;;;;;;;-3.40;99.90;;;;;;5069402;28;19924;-76
2022/12/13 00:24:24;;;;;;;;;;;-3.40;99.90;;;;;;5069936;28;20226;-77
2022/12/13 00:26:52;;;;;;;;;;;-3.40;99.90;;;;;;5069601;28;20026;-76
2022/12/13 00:29:17;;;;;;;;;;;-3.30;99.90;;;;;;5069306;28;19908;-77
2022/12/13 00:31:43;;;;;;;;;;;-3.30;99.90;;;;;;5068479;28;19965;-76
2022/12/13 00:34:08;;;;;;;;;;;-3.30;99.90;;;;;;5068389;28;19961;-76
2022/12/13 00:36:34;;;;;;;;;;;-3.30;99.90;;;;;;5069518;28;19912;-76
2022/12/13 00:38:59;;;;;;;;;;;-3.40;99.90;;;;;;5067859;28;19969;-76
2022/12/13 00:41:26;;;;;;;;;;;-3.30;99.90;;;;;;5067937;28;19920;-77
2022/12/13 00:43:51;;;;;;;;;;;-3.50;99.90;;;;;;5068057;28;19908;-77
2022/12/13 00:46:18;;;;;;;;;;;-3.50;99.90;;;;;;5069543;28;20312;-77
2022/12/13 00:48:47;;;;;;;;;;;-3.50;99.90;;;;;;5067835;28;19928;-76
2022/12/13 00:51:13;;;;;;;;;;;-3.50;99.90;;;;;;5069321;28;20304;-77
2022/12/13 00:53:39;;;;;;;;;;;-3.60;99.90;;;;;;5067525;28;19916;-77
2022/12/13 00:56:08;;;;;;;;;;;-3.70;99.90;;;;;;5067731;28;19917;-77
2022/12/13 00:58:34;;;;;;;;;;;-3.70;99.90;;;;;;5067863;28;20181;-77
2022/12/13 01:01:04;;;;;;;;;;;-3.80;99.90;;;;;;5067919;28;20612;-77
2022/12/13 01:03:30;;;;;;;;;;;-3.80;99.90;;;;;;5069290;28;19916;-76
2022/12/13 01:05:55;;;;;;;;;;;-3.80;99.90;;;;;;5067668;28;19920;-77
2022/12/13 01:08:21;;;;;;;;;;;-3.80;99.90;;;;;;5067760;28;20301;-77
2022/12/13 01:10:46;;;;;;;;;;;-3.90;99.90;;;;;;5069099;28;20340;-77
2022/12/13 01:13:12;;;;;;;;;;;-4.00;99.90;;;;;;5068518;28;20381;-77
2022/12/13 01:15:42;;;;;;;;;;;-4.00;99.90;;;;;;5067914;28;20287;-77
2022/12/13 01:18:08;;;;;;;;;;;-4.10;99.90;;;;;;5067983;28;20226;-77
2022/12/13 01:20:33;;;;;;;;;;;-4.20;99.90;;;;;;5067605;28;20415;-77
2022/12/13 01:22:59;;;;;;;;;;;-4.20;99.90;;;;;;5068847;28;19920;-77
2022/12/13 01:25:24;;;;;;;;;;;-4.30;99.90;;;;;;5067207;28;20011;-77
2022/12/13 01:27:50;;;;;;;;;;;-4.40;99.90;;;;;;5068347;28;19913;-77
2022/12/13 01:30:15;;;;;;;;;;;-4.30;99.90;;;;;;5068405;28;19978;-77
2022/12/13 01:32:41;;;;;;;;;;;-4.40;99.90;;;;;;5067504;28;19918;-77
2022/12/13 01:35:06;;;;;;;;;;;-4.40;99.90;;;;;;5068455;28;20037;-77
2022/12/13 01:37:32;;;;;;;;;;;-4.40;99.90;;;;;;5068181;28;19974;-77
2022/12/13 01:39:58;;;;;;;;;;;-4.50;99.90;;;;;;5067019;28;19915;-77
2022/12/13 01:42:23;;;;;;;;;;;-4.50;99.90;;;;;;5066289;28;19912;-77
2022/12/13 01:44:55;;;;;;;;;;;-4.50;99.90;;;;;;5066774;28;19915;-77
2022/12/13 01:47:28;;;;;;;;;;;-4.50;99.90;;;;;;5066775;28;19912;-77
2022/12/13 01:49:55;;;;;;;;;;;-4.50;99.90;;;;;;5068064;28;19916;-76
2022/12/13 01:52:21;;;;;;;;;;;-4.50;99.90;;;;;;5067314;28;19919;-77
2022/12/13 01:54:48;;;;;;;;;;;-4.40;99.90;;;;;;5066796;28;19999;-77
2022/12/13 01:57:15;;;;;;;;;;;-4.40;99.90;;;;;;5065989;28;19916;-77
2022/12/13 01:59:41;;;;;;;;;;;-4.50;99.90;;;;;;5066409;28;19908;-76
2022/12/13 02:02:08;;;;;;;;;;;-4.30;99.90;;;;;;5066300;28;19963;-77
2022/12/13 02:04:47;;;;;;;;;;;-4.40;99.90;;;;;;5067434;28;19920;-77
2022/12/13 02:07:14;;;;;;;;;;;-4.50;99.90;;;;;;5066268;28;19973;-78
2022/12/13 02:09:40;;;;;;;;;;;-4.50;99.90;;;;;;5068385;28;20002;-78
2022/12/13 02:12:06;;;;;;;;;;;-4.60;99.90;;;;;;5067450;28;19991;-78
2022/12/13 02:14:33;;;;;;;;;;;-4.60;99.90;;;;;;5066538;28;19909;-76
2022/12/13 02:17:04;;;;;;;;;;;-4.70;99.90;;;;;;5067520;28;20011;-78
2022/12/13 02:19:33;;;;;;;;;;;-4.70;99.90;;;;;;5066288;28;19931;-77
2022/12/13 02:22:01;;;;;;;;;;;-4.70;99.90;;;;;;5066437;28;20024;-77
2022/12/13 02:24:47;;;;;;;;;;;-4.80;99.90;;;;;;5066401;28;20018;-77
2022/12/13 02:27:18;;;;;;;;;;;-4.80;99.90;;;;;;5066084;28;19951;-77
2022/12/13 02:29:43;;;;;;;;;;;-4.90;99.90;;;;;;5067503;28;20331;-77
2022/12/13 02:32:15;;;;;;;;;;;-4.90;99.90;;;;;;5066249;28;20438;-77
2022/12/13 02:34:45;;;;;;;;;;;-4.90;99.90;;;;;;5067654;28;20011;-76
2022/12/13 02:37:10;;;;;;;;;;;-4.90;99.90;;;;;;5065685;28;19917;-77
2022/12/13 02:39:42;;;;;;;;;;;-4.90;99.90;;;;;;5065726;28;19958;-77
2022/12/13 02:42:28;;;;;;;;;;;-4.90;99.90;;;;;;5067120;28;19909;-77
2022/12/13 02:44:56;;;;;;;;;;;-4.90;99.90;;;;;;5054518;28;20002;-77
2022/12/13 02:47:23;;;;;;;;;;;-4.90;99.90;;;;;;5065820;28;19969;-78
2022/12/13 02:49:50;;;;;;;;;;;-4.90;99.90;;;;;;5066967;28;19908;-77
2022/12/13 02:52:18;;;;;;;;;;;-4.90;99.90;;;;;;5065744;28;19913;-77
2022/12/13 02:54:44;;;;;;;;;;;-4.90;99.90;;;;;;5067431;28;19912;-77
2022/12/13 02:57:26;;;;;;;;;;;-4.80;99.90;;;;;;5066854;28;20364;-77
2022/12/13 02:59:52;;;;;;;;;;;-4.80;99.90;;;;;;5065919;28;19916;-76
2022/12/13 03:02:38;;;;;;;;;;;-4.90;99.90;;;;;;5066988;28;19916;-77
2022/12/13 03:08:25;;;;;;;;;;;-4.80;99.90;;;;;;5066699;28;19969;-77
2022/12/13 03:10:57;;;;;;;;;;;-4.80;99.90;;;;;;5065626;28;19912;-77
2022/12/13 03:13:37;;;;;;;;;;;-4.90;99.90;;;;;;5066135;28;20003;-77
2022/12/13 03:16:18;;;;;;;;;;;-4.90;99.90;;;;;;5067150;28;19936;-77
2022/12/13 03:18:44;;;;;;;;;;;-4.90;99.90;;;;;;5065627;28;19962;-77
2022/12/13 03:21:10;;;;;;;;;;;-4.90;99.90;;;;;;5066705;28;20339;-78
2022/12/13 03:23:36;;;;;;;;;;;-4.90;99.90;;;;;;5065510;28;20388;-77
2022/12/13 03:26:12;;;;;;;;;;;-5.00;99.90;;;;;;5065074;28;20535;-77
2022/12/13 03:28:38;;;;;;;;;;;-5.00;99.90;;;;;;5066090;28;19934;-76
2022/12/13 03:31:04;;;;;;;;;;;-5.10;99.90;;;;;;5066647;28;20542;-76
2022/12/13 03:33:30;;;;;;;;;;;-5.20;99.90;;;;;;5066847;28;20007;-76
2022/12/13 03:35:55;;;;;;;;;;;-5.20;99.90;;;;;;5066186;28;19987;-77
2022/12/13 03:38:21;;;;;;;;;;;-5.20;99.90;;;;;;5066684;28;20720;-76
2022/12/13 03:40:47;;;;;;;;;;;-5.30;99.90;;;;;;5066391;28;20005;-77
2022/12/13 03:43:13;;;;;;;;;;;-5.30;99.90;;;;;;5065109;28;19918;-78
2022/12/13 03:45:38;;;;;;;;;;;-5.30;99.90;;;;;;5066865;28;19921;-77
2022/12/13 03:48:04;;;;;;;;;;;-5.40;99.90;;;;;;5065262;28;20391;-77
2022/12/13 03:50:29;;;;;;;;;;;-5.40;99.90;;;;;;5066578;28;19959;-77
2022/12/13 03:52:59;;;;;;;;;;;-5.30;99.90;;;;;;5065686;28;19912;-77
2022/12/13 03:55:24;;;;;;;;;;;-5.20;99.90;;;;;;5066332;28;19958;-77
2022/12/13 03:57:50;;;;;;;;;;;-5.10;99.90;;;;;;5068109;28;19912;-77
2022/12/13 04:00:16;;;;;;;;;;;-5.10;99.90;;;;;;5069061;28;19919;-77
2022/12/13 04:02:41;;;;;;;;;;;-5.10;99.90;;;;;;5070060;28;19918;-77
2022/12/13 04:05:07;;;;;;;;;;;-5.10;99.90;;;;;;5069982;28;20027;-77
2022/12/13 04:07:32;;;;;;;;;;;-5.20;99.90;;;;;;5069991;28;19925;-77
2022/12/13 04:09:58;;;;;;;;;;;-5.20;99.90;;;;;;5070190;28;19936;-77
2022/12/13 04:15:08;;;;;;;;;;;-5.30;99.90;;;;;;5070144;28;19958;-78
2022/12/13 04:17:33;;;;;;;;;;;-5.30;99.90;;;;;;5068419;28;19916;-77
2022/12/13 04:19:59;;;;;;;;;;;-5.30;99.90;;;;;;5069998;28;19955;-77
2022/12/13 04:22:24;;;;;;;;;;;-5.30;99.90;;;;;;5069636;28;19912;-77
2022/12/13 04:24:50;;;;;;;;;;;-5.40;99.90;;;;;;5068389;28;19916;-77
2022/12/13 04:27:15;;;;;;;;;;;-5.40;99.90;;;;;;5068944;28;20365;-77
2022/12/13 04:29:41;;;;;;;;;;;-5.40;99.90;;;;;;5069561;28;19966;-78
2022/12/13 04:32:07;;;;;;;;;;;-5.50;99.90;;;;;;5067943;28;19923;-77
2022/12/13 04:34:32;;;;;;;;;;;-5.50;99.90;;;;;;5069558;28;19932;-77
2022/12/13 04:36:58;;;;;;;;;;;-5.50;99.90;;;;;;5068544;28;20452;-77
2022/12/13 04:39:23;;;;;;;;;;;-5.60;99.90;;;;;;5067952;28;19931;-78
2022/12/13 04:41:50;;;;;;;;;;;-5.60;99.90;;;;;;5069443;28;19912;-77
2022/12/13 04:44:16;;;;;;;;;;;-5.60;99.90;;;;;;5068525;28;19937;-78
2022/12/13 04:46:41;;;;;;;;;;;-5.60;99.90;;;;;;5068106;28;20460;-77
2022/12/13 04:49:07;;;;;;;;;;;-5.60;99.90;;;;;;5068560;28;19913;-77
2022/12/13 04:51:32;;;;;;;;;;;-5.70;99.90;;;;;;5068956;28;20863;-77
2022/12/13 04:53:58;;;;;;;;;;;-5.70;99.90;;;;;;5068054;28;20014;-77
2022/12/13 04:56:24;;;;;;;;;;;-5.70;99.90;;;;;;5068585;28;19995;-77
2022/12/13 04:58:49;;;;;;;;;;;-5.70;99.90;;;;;;5069187;28;19912;-77
2022/12/13 05:01:15;;;;;;;;;;;-5.40;99.90;;;;;;5067599;28;20334;-77
2022/12/13 05:03:43;;;;;;;;;;;-5.60;99.90;;;;;;5068767;28;21411;-77
2022/12/13 05:06:10;;;;;;;;;;;-5.60;99.90;;;;;;5067504;28;19920;-77
2022/12/13 05:08:36;;;;;;;;;;;-5.60;99.90;;;;;;5068599;28;19916;-77
2022/12/13 05:11:02;;;;;;;;;;;-5.50;99.90;;;;;;5067466;28;20032;-76
2022/12/13 05:13:28;;;;;;;;;;;-5.60;99.90;;;;;;5067600;28;19909;-77
2022/12/13 05:15:57;;;;;;;;;;;-5.60;99.90;;;;;;5068500;28;19939;-77
2022/12/13 05:18:22;;;;;;;;;;;-5.60;99.90;;;;;;5067978;28;19919;-77
2022/12/13 05:20:49;;;;;;;;;;;-5.60;99.90;;;;;;5068753;28;20342;-77
2022/12/13 05:23:16;;;;;;;;;;;-5.50;99.90;;;;;;5067285;28;20088;-77
2022/12/13 05:25:41;;;;;;;;;;;-5.50;99.90;;;;;;5067311;28;19916;-77
2022/12/13 05:28:07;;;;;;;;;;;-5.50;99.90;;;;;;5068806;28;19934;-78
2022/12/13 05:30:32;;;;;;;;;;;-5.50;99.90;;;;;;5067682;28;20276;-77
2022/12/13 05:32:58;;;;;;;;;;;-5.50;99.90;;;;;;5067155;28;19915;-77
2022/12/13 05:35:23;;;;;;;;;;;-5.50;99.90;;;;;;5066798;28;20289;-76
2022/12/13 05:37:50;;;;;;;;;;;-5.50;99.90;;;;;;5066975;28;19946;-77
2022/12/13 05:40:15;;;;;;;;;;;-5.50;99.90;;;;;;5067046;28;19952;-77
2022/12/13 05:42:41;;;;;;;;;;;-5.50;99.90;;;;;;5068392;28;19948;-77
2022/12/13 05:45:06;;;;;;;;;;;-5.50;99.90;;;;;;5066524;28;20376;-76
2022/12/13 05:47:32;;;;;;;;;;;-5.50;99.90;;;;;;5067691;28;19970;-78
2022/12/13 05:49:57;;;;;;;;;;;-5.30;99.90;;;;;;5066448;28;19914;-77
2022/12/13 05:52:23;;;;;;;;;;;-5.20;99.90;;;;;;5067139;28;20296;-76
2022/12/13 05:54:53;;;;;;;;;;;-5.10;99.90;;;;;;5067995;28;20292;-77
2022/12/13 05:57:18;;;;;;;;;;;-5.00;99.90;;;;;;5066702;28;19908;-77
2022/12/13 05:59:44;;;;;;;;;;;-5.00;99.90;;;;;;5069302;28;19935;-78
2022/12/13 06:02:09;;;;;;;;;;;-4.90;99.90;;;;;;5068168;28;19921;-77
2022/12/13 06:04:35;;;;;;;;;;;-4.80;99.90;;;;;;5066577;28;20341;-76
2022/12/13 06:07:01;;;;;;;;;;;-4.80;99.90;;;;;;5068186;28;19925;-78
2022/12/13 06:09:26;;;;;;;;;;;-4.90;99.90;;;;;;5065902;28;19916;-77
2022/12/13 06:11:52;;;;;;;;;;;-5.00;99.90;;;;;;5066723;28;19908;-77
2022/12/13 06:14:17;;;;;;;;;;;-5.00;99.90;;;;;;5068212;28;19975;-77
2022/12/13 06:16:43;;;;;;;;;;;-5.30;99.90;;;;;;5067436;28;20377;-77
2022/12/13 06:19:09;;;;;;;;;;;-5.10;99.90;;;;;;5066970;28;19959;-77
2022/12/13 06:21:35;;;;;;;;;;;-5.10;99.90;;;;;;5067318;28;20005;-77
2022/12/13 06:24:00;;;;;;;;;;;-5.10;99.90;;;;;;5066309;28;20322;-77
2022/12/13 06:26:26;;;;;;;;;;;-5.20;99.90;;;;;;5066308;28;20341;-77
2022/12/13 06:28:51;;;;;;;;;;;-5.20;99.90;;;;;;5066473;28;19915;-76
2022/12/13 06:31:17;;;;;;;;;;;-5.20;99.90;;;;;;5066146;28;20385;-77
2022/12/13 06:33:42;;;;;;;;;;;-5.20;99.90;;;;;;5066215;28;19912;-76
2022/12/13 06:36:08;;;;;;;;;;;-5.20;99.90;;;;;;5067574;28;19916;-77
2022/12/13 06:38:34;;;;;;;;;;;-5.30;99.90;;;;;;5067202;28;20097;-76
2022/12/13 06:41:07;;;;;;;;;;;-4.00;99.90;;;;;;5066926;28;20658;-77
2022/12/13 06:43:32;;;;;;;;;;;-5.30;99.90;;;;;;5066285;28;19973;-77
2022/12/13 06:45:58;;;;;;;;;;;-4.70;99.90;;;;;;5065844;28;20229;-77
2022/12/13 06:48:23;;;;;;;;;;;-5.30;99.90;;;;;;5067288;28;19912;-77
2022/12/13 06:50:49;;;;;;;;;;;-5.30;99.90;;;;;;5065859;28;20211;-77
2022/12/13 06:53:14;;;;;;;;;;;-5.30;99.90;;;;;;5066806;28;19909;-78
2022/12/13 06:55:40;;;;;;;;;;;-5.30;99.90;;;;;;5065460;28;19909;-78
2022/12/13 06:58:05;;;;;;;;;;;-5.20;99.90;;;;;;5065935;28;20071;-78
2022/12/13 07:00:31;;;;;;;;;;;-5.20;99.90;;;;;;5065105;28;19966;-78
2022/12/13 07:02:57;;;;;;;;;;;-5.10;99.90;;;;;;5065643;28;20431;-78
2022/12/13 07:05:22;;;;;;;;;;;-4.50;99.90;;;;;;5066925;28;19951;-77
2022/12/13 07:07:48;;;;;;;;;;;-5.00;99.90;;;;;;5066004;28;19909;-77
2022/12/13 07:10:13;;;;;;;;;;;-4.90;99.90;;;;;;5064940;28;19909;-76
2022/12/13 07:12:39;;;;;;;;;;;-4.70;99.90;;;;;;5067015;28;20002;-77
2022/12/13 07:15:05;;;;;;;;;;;-4.40;99.90;;;;;;5065798;28;19951;-77
2022/12/13 07:17:30;;;;;;;;;;;-4.00;99.90;;;;;;5066746;28;19912;-77
2022/12/13 07:19:56;;;;;;;;;;;-3.70;99.90;;;;;;5065431;28;19912;-78
2022/12/13 07:22:21;;;;;;;;;;;-2.60;99.90;;;;;;5066277;28;20009;-78
2022/12/13 07:24:47;;;;;;;;;;;-3.30;99.90;;;;;;5065061;28;20438;-77
2022/12/13 07:27:12;;;;;;;;;;;-3.20;99.90;;;;;;5065575;28;19916;-77
2022/12/13 07:29:38;;;;;;;;;;;-2.80;99.90;;;;;;5065968;28;19947;-77
2022/12/13 07:32:03;;;;;;;;;;;-2.90;99.90;;;;;;5070766;28;19946;-77
2022/12/13 07:34:29;;;;;;;;;;;-2.70;99.90;;;;;;5069630;28;20388;-77
2022/12/13 07:36:54;;;;;;;;;;;-2.60;99.90;;;;;;5069362;28;19909;-76
2022/12/13 07:39:22;;;;;;;;;;;-2.40;99.90;;;;;;5069323;28;19908;-77
2022/12/13 07:41:47;;;;;;;;;;;-2.20;99.90;;;;;;5069422;28;19912;-78
2022/12/13 07:44:13;;;;;;;;;;;-1.80;99.90;;;;;;5070663;28;19913;-77
2022/12/13 07:46:38;;;;;;;;;;;-1.10;99.90;;;;;;5069351;28;19920;-76
2022/12/13 07:49:04;;;;;;;;;;;-0.50;99.90;;;;;;5070741;28;20726;-77
2022/12/13 07:51:31;;;;;;;;;;;-0.60;99.90;;;;;;5069463;28;19913;-77
2022/12/13 07:53:57;;;;;;;;;;;-0.40;99.90;;;;;;5068865;28;19920;-76
2022/12/13 07:56:22;;;;;;;;;;;-0.30;99.90;;;;;;5069530;28;19912;-76
2022/12/13 07:58:48;;;;;;;;;;;0.00;99.90;;;;;;5070837;28;20407;-76
2022/12/13 08:01:13;;;;;;;;;;;0.30;99.90;;;;;;5069622;28;20006;-77
2022/12/13 08:03:39;;;;;;;;;;;0.50;99.90;;;;;;5071293;28;20288;-77
2022/12/13 08:06:09;;;;;;;;;;;0.60;99.90;;;;;;5069532;28;20408;-77
2022/12/13 08:08:35;;;;;;;;;;;0.80;99.90;;;;;;5070791;28;19985;-77
2022/12/13 08:11:01;;;;;;;;;;;1.00;99.90;;;;;;5070500;28;20467;-77
2022/12/13 08:13:26;;;;;;;;;;;1.30;99.90;;;;;;5069862;28;20373;-77
2022/12/13 08:15:56;;;;;;;;;;;1.50;99.90;;;;;;5071216;28;19935;-76
2022/12/13 08:18:22;;;;;;;;;;;1.90;99.90;;;;;;5072246;28;19909;-77
2022/12/13 08:20:47;;;;;;;;;;;2.20;99.90;;;;;;5072449;28;20262;-76
2022/12/13 08:23:13;;;;;;;;;;;2.50;99.90;;;;;;5071141;28;19912;-78
2022/12/13 08:25:38;;;;;;;;;;;2.60;99.90;;;;;;5071221;28;19920;-76
2022/12/13 08:28:04;;;;;;;;;;;2.80;99.90;;;;;;5071806;28;19924;-76
2022/12/13 08:30:31;;;;;;;;;;;2.50;99.90;;;;;;5069818;28;19970;-77
2022/12/13 08:32:56;;;;;;;;;;;2.20;99.90;;;;;;5072106;28;19923;-76
2022/12/13 08:35:22;;;;;;;;;;;1.90;99.90;;;;;;5071711;28;20341;-76
2022/12/13 08:37:47;;;;;;;;;;;1.50;99.90;;;;;;5070448;28;20369;-76
2022/12/13 08:40:13;;;;;;;;;;;1.20;99.90;;;;;;5069573;28;19915;-76
2022/12/13 08:42:38;;;;;;;;;;;1.00;99.90;;;;;;5068958;28;19982;-76
2022/12/13 08:45:04;;;;;;;;;;;1.00;99.90;;;;;;5070822;28;19909;-76
2022/12/13 08:47:30;;;;;;;;;;;0.90;99.90;;;;;;5070521;28;20312;-76
2022/12/13 08:49:58;;;;;;;;;;;0.70;99.90;;;;;;5069514;28;19995;-76
2022/12/13 08:52:23;;;;;;;;;;;0.70;99.90;;;;;;5069021;28;20012;-77
2022/12/13 08:54:49;;;;;;;;;;;0.80;99.90;;;;;;5068938;28;19979;-77
2022/12/13 08:57:15;;;;;;;;;;;0.90;99.90;;;;;;5071979;28;19913;-77
2022/12/13 08:59:41;;;;;;;;;;;1.00;99.90;;;;;;5071853;28;19916;-77
2022/12/13 09:02:10;;;;;;;;;;;1.90;99.90;;;;;;5070387;28;19928;-77
2022/12/13 09:04:36;;;;;;;;;;;1.10;99.90;;;;;;5071443;28;19908;-76
2022/12/13 09:07:01;;;;;;;;;;;1.10;99.90;;;;;;5070729;28;20266;-77
2022/12/13 09:09:27;;;;;;;;;;;1.20;99.90;;;;;;5071319;28;20038;-77
2022/12/13 09:11:53;;;;;;;;;;;1.20;99.90;;;;;;5071603;28;19915;-76
2022/12/13 09:14:18;;;;;;;;;;;1.20;99.90;;;;;;5072800;28;19909;-76
2022/12/13 09:16:44;;;;;;;;;;;1.20;99.90;;;;;;5068326;28;19909;-76
2022/12/13 09:19:09;;;;;;;;;;;1.10;99.90;;;;;;5067571;28;19912;-75
2022/12/13 09:21:35;;;;;;;;;;;1.10;99.90;;;;;;5068757;28;19908;-77
2022/12/13 09:24:00;;;;;;;;;;;1.00;99.90;;;;;;5070292;28;19919;-77
2022/12/13 09:26:26;;;;;;;;;;;1.00;99.90;;;;;;5068818;28;20010;-76
2022/12/13 09:28:52;;;;;;;;;;;0.90;99.90;;;;;;5068606;28;19912;-77
2022/12/13 09:31:18;;;;;;;;;;;0.90;99.90;;;;;;5069558;28;19909;-76
2022/12/13 09:33:44;;;;;;;;;;;1.30;99.90;;;;;;5070167;28;19916;-77
2022/12/13 09:36:10;;;;;;;;;;;1.00;99.90;;;;;;5068667;28;19909;-77
2022/12/13 09:38:36;;;;;;;;;;;1.00;99.90;;;;;;5067315;28;19942;-75
2022/12/13 09:41:22;;;;;;;;;;;1.10;99.90;;;;;;5069498;28;20519;-75
2022/12/13 09:43:51;;;;;;;;;;;1.10;99.90;;;;;;5067453;28;19913;-76
2022/12/13 09:46:21;;;;;;;;;;;1.10;99.90;;;;;;5068889;28;19959;-76
2022/12/13 09:48:47;;;;;;;;;;;1.10;99.90;;;;;;5068168;28;19916;-76
2022/12/13 09:51:13;;;;;;;;;;;1.10;99.90;;;;;;5068460;28;19912;-75
2022/12/13 09:53:38;;;;;;;;;;;1.10;99.90;;;;;;5068539;28;19931;-76
2022/12/13 09:56:04;;;;;;;;;;;1.10;99.90;;;;;;5069240;28;19916;-75
2022/12/13 09:58:30;;;;;;;;;;;1.00;99.90;;;;;;5069277;28;19915;-76
2022/12/13 10:00:57;;;;;;;;;;;1.00;99.90;;;;;;5067627;28;19985;-76
2022/12/13 10:03:24;;;;;;;;;;;1.10;99.90;;;;;;5068381;28;20412;-76
2022/12/13 10:05:59;;;;;;;;;;;1.10;99.90;;;;;;5066768;28;20007;-77
2022/12/13 10:08:34;;;;;;;;;;;1.20;99.90;;;;;;5066747;28;19917;-76
2022/12/13 10:11:00;;;;;;;;;;;1.10;99.90;;;;;;5068557;28;19908;-77
2022/12/13 10:13:25;;;;;;;;;;;1.20;99.90;;;;;;5067081;28;19983;-76
2022/12/13 10:15:58;;;;;;;;;;;1.50;99.90;;;;;;5066100;28;19909;-75
2022/12/13 10:18:29;;;;;;;;;;;1.20;99.90;;;;;;5067705;28;19965;-76
2022/12/13 10:20:56;;;;;;;;;;;1.20;99.90;;;;;;5068803;28;19908;-75
2022/12/13 10:23:21;;;;;;;;;;;1.10;99.90;;;;;;5067637;28;19908;-75
2022/12/13 10:25:53;;;;;;;;;;;1.10;99.90;;;;;;5067018;28;20054;-77
2022/12/13 10:28:27;;;;;;;;;;;1.10;99.90;;;;;;5068718;28;19912;-76
2022/12/13 10:30:52;;;;;;;;;;;1.10;99.90;;;;;;5067258;28;19908;-75
2022/12/13 10:33:27;;;;;;;;;;;1.10;99.90;;;;;;5066972;28;19915;-75
2022/12/13 10:36:05;;;;;;;;;;;1.20;99.90;;;;;;5066797;28;19909;-76
2022/12/13 10:38:33;;;;;;;;;;;1.20;99.90;;;;;;5068469;28;19908;-76
2022/12/13 10:40:59;;;;;;;;;;;1.30;99.90;;;;;;5067490;28;19915;-76
2022/12/13 10:43:25;;;;;;;;;;;1.20;99.90;;;;;;5066952;28;19909;-76
2022/12/13 10:46:00;;;;;;;;;;;1.20;99.90;;;;;;5067936;28;19916;-75
2022/12/13 10:48:25;;;;;;;;;;;1.20;99.90;;;;;;5068428;28;19946;-77
2022/12/13 10:50:55;;;;;;;;;;;1.20;99.90;;;;;;5066897;28;19951;-76
2022/12/13 10:53:21;;;;;;;;;;;1.20;99.90;;;;;;5067500;28;19913;-75
2022/12/13 10:55:53;;;;;;;;;;;1.20;99.90;;;;;;5067988;28;19913;-75
2022/12/13 10:58:18;;;;;;;;;;;1.20;99.90;;;;;;5067507;28;19939;-76
2022/12/13 11:00:45;;;;;;;;;;;1.20;99.90;;;;;;5066764;28;20443;-76
2022/12/13 11:03:12;;;;;;;;;;;1.20;99.90;;;;;;5066676;28;19912;-76
2022/12/13 11:05:39;;;;;;;;;;;1.20;99.90;;;;;;5066006;28;19917;-76
2022/12/13 11:08:12;;;;;;;;;;;1.90;99.90;;;;;;5066572;28;19912;-76
2022/12/13 11:10:37;;;;;;;;;;;1.20;99.90;;;;;;5068683;28;19930;-75
2022/12/13 11:13:05;;;;;;;;;;;1.10;99.90;;;;;;5068469;28;20353;-76
2022/12/13 11:15:32;;;;;;;;;;;1.30;99.90;;;;;;5067086;28;20296;-75
2022/12/13 11:17:58;;;;;;;;;;;1.20;99.90;;;;;;5069118;28;20482;-76
2022/12/13 11:20:35;;;;;;;;;;;1.20;99.90;;;;;;5066796;28;19919;-75
2022/12/13 11:23:02;;;;;;;;;;;1.10;99.90;;;;;;5067388;28;19912;-76
2022/12/13 11:25:42;;;;;;;;;;;1.20;99.90;;;;;;5068667;28;20250;-77
2022/12/13 11:28:16;;;;;;;;;;;1.20;99.90;;;;;;5068740;28;20425;-76
2022/12/13 11:30:44;;;;;;;;;;;1.20;99.90;;;;;;5069500;28;19909;-75
2022/12/13 11:33:10;;;;;;;;;;;1.20;99.90;;;;;;5068095;28;19912;-76
2022/12/13 11:35:44;;;;;;;;;;;1.20;99.90;;;;;;5069670;28;19916;-75
2022/12/13 11:38:21;;;;;;;;;;;1.20;99.90;;;;;;5069433;28;19943;-77
2022/12/13 11:40:50;;;;;;;;;;;1.30;99.90;;;;;;5069317;28;19938;-75
2022/12/13 11:43:25;;;;;;;;;;;1.20;99.90;;;;;;5067876;28;19952;-76
2022/12/13 11:45:54;;;;;;;;;;;1.20;99.90;;;;;;5065833;28;19924;-76
2022/12/13 11:48:40;;;;;;;;;;;1.20;99.90;;;;;;5066005;28;19912;-76
2022/12/13 11:51:07;;;;;;;;;;;1.20;99.90;;;;;;5066624;28;19908;-76
2022/12/13 11:53:34;;;;;;;;;;;1.30;99.90;;;;;;5067108;28;20385;-76
2022/12/13 11:56:09;;;;;;;;;;;1.20;99.90;;;;;;5067294;28;19931;-76
2022/12/13 11:58:40;;;;;;;;;;;1.20;99.90;;;;;;5067418;28;19978;-76
2022/12/13 12:01:14;;;;;;;;;;;1.20;99.90;;;;;;5067078;28;19924;-75
2022/12/13 12:03:53;;;;;;;;;;;1.10;99.90;;;;;;5067096;28;19917;-75
2022/12/13 12:06:24;;;;;;;;;;;1.10;99.90;;;;;;5062073;28;20369;-76
2022/12/13 12:08:58;;;;;;;;;;;1.10;99.90;;;;;;5065801;28;20373;-76
2022/12/13 12:11:32;;;;;;;;;;;1.10;99.90;;;;;;5067232;28;19990;-76
2022/12/13 12:14:04;;;;;;;;;;;1.10;99.90;;;;;;5065774;28;20768;-76
2022/12/13 12:16:36;;;;;;;;;;;1.10;99.90;;;;;;5067193;28;19912;-76
2022/12/13 12:19:01;;;;;;;;;;;1.10;99.90;;;;;;5071003;28;20436;-75
2022/12/13 12:21:56;;;;;;;;;;;1.10;99.90;;;;;;5070285;28;20074;-76
2022/12/13 12:24:43;;;;;;;;;;;1.10;99.90;;;;;;5064937;28;19920;-76
2022/12/13 12:27:08;;;;;;;;;;;1.10;99.90;;;;;;5059031;28;19927;-75
2022/12/13 12:29:37;;;;;;;;;;;1.20;99.90;;;;;;5069457;28;19913;-76
2022/12/13 12:32:07;;;;;;;;;;;1.20;99.90;;;;;;5070737;28;19920;-76
2022/12/13 12:34:43;;;;;;;;;;;1.20;99.90;;;;;;5069790;28;19913;-74
2022/12/13 12:37:11;;;;;;;;;;;1.20;99.90;;;;;;5068835;28;19972;-76
2022/12/13 12:40:00;;;;;;;;;;;1.20;99.90;;;;;;5069546;28;19917;-77
2022/12/13 12:42:25;;;;;;;;;;;1.20;99.90;;;;;;5069385;28;19963;-76
2022/12/13 12:44:51;;;;;;;;;;;1.20;99.90;;;;;;5070378;28;19940;-76
2022/12/13 12:47:16;;;;;;;;;;;1.20;99.90;;;;;;5069102;28;19924;-76
2022/12/13 12:49:51;;;;;;;;;;;1.20;99.90;;;;;;5069589;28;19943;-76
2022/12/13 12:52:33;;;;;;;;;;;1.10;99.90;;;;;;5068545;28;20373;-76
2022/12/13 12:55:11;;;;;;;;;;;1.10;99.90;;;;;;5069875;28;19966;-76
2022/12/13 12:57:43;;;;;;;;;;;1.10;99.90;;;;;;5070332;28;19916;-75
2022/12/13 13:00:11;;;;;;;;;;;1.10;99.90;;;;;;5069229;28;19917;-77
2022/12/13 13:03:00;;;;;;;;;;;1.10;99.90;;;;;;5069823;28;19939;-76
2022/12/13 13:05:32;;;;;;;;;;;1.10;99.90;;;;;;5069391;28;19917;-76
2022/12/13 13:08:01;;;;;;;;;;;1.00;99.90;;;;;;5070600;28;19953;-76
2022/12/13 13:10:27;;;;;;;;;;;1.00;99.90;;;;;;5069523;28;19920;-75
2022/12/13 13:12:53;;;;;;;;;;;1.00;99.90;;;;;;5069327;28;20320;-76
2022/12/13 13:15:31;;;;;;;;;;;1.00;99.90;;;;;;5070359;28;20381;-76
2022/12/13 13:17:57;;;;;;;;;;;1.00;99.90;;;;;;5069508;28;20343;-76
2022/12/13 13:20:23;;;;;;;;;;;1.00;99.90;;;;;;5069024;28;20297;-76
2022/12/13 13:22:50;;;;;;;;;;;0.90;99.90;;;;;;5069580;28;19919;-76
2022/12/13 13:25:15;;;;;;;;;;;0.90;99.90;;;;;;5070697;28;19919;-76
2022/12/13 13:27:42;;;;;;;;;;;0.90;99.90;;;;;;5070544;28;19964;-76
2022/12/13 13:30:16;;;;;;;;;;;0.90;99.90;;;;;;5069384;28;19917;-76
2022/12/13 13:32:42;;;;;;;;;;;0.90;99.90;;;;;;5069731;28;19919;-76
2022/12/13 13:35:26;;;;;;;;;;;0.90;99.90;;;;;;5068727;28;19912;-76
2022/12/13 13:37:51;;;;;;;;;;;0.80;99.90;;;;;;5068737;28;20006;-76
2022/12/13 13:40:28;;;;;;;;;;;0.80;99.90;;;;;;5070685;28;20014;-76
2022/12/13 13:43:09;;;;;;;;;;;0.80;99.90;;;;;;5068984;28;19909;-76
2022/12/13 13:46:04;;;;;;;;;;;0.80;99.90;;;;;;5068916;28;19912;-77
2022/12/13 13:48:42;;;;;;;;;;;0.80;99.90;;;;;;5068836;28;19916;-76
2022/12/13 13:51:27;;;;;;;;;;;0.80;99.90;;;;;;5069386;28;19912;-76
2022/12/13 13:53:52;;;;;;;;;;;0.70;99.90;;;;;;5070460;28;19912;-76
2022/12/13 13:56:24;;;;;;;;;;;0.70;99.90;;;;;;5070336;28;20403;-76
2022/12/13 13:58:58;;;;;;;;;;;0.60;99.90;;;;;;5068648;28;20323;-77
2022/12/13 14:01:45;;;;;;;;;;;0.60;99.90;;;;;;5068147;28;19920;-76
2022/12/13 14:04:32;;;;;;;;;;;0.60;99.90;;;;;;5069937;28;19955;-76
2022/12/13 14:07:01;;;;;;;;;;;0.60;99.90;;;;;;5069050;28;19970;-77
2022/12/13 14:09:40;;;;;;;;;;;0.50;99.90;;;;;;5066871;28;19909;-77
2022/12/13 14:12:12;;;;;;;;;;;0.50;99.90;;;;;;5067195;28;19962;-76
2022/12/13 14:14:46;;;;;;;;;;;0.40;99.90;;;;;;5068605;28;20411;-76
2022/12/13 14:17:31;;;;;;;;;;;0.40;99.90;;;;;;5068663;28;19909;-76
2022/12/13 14:20:00;;;;;;;;;;;0.30;99.90;;;;;;5066779;28;19912;-76
2022/12/13 14:22:28;;;;;;;;;;;0.30;99.90;;;;;;5068424;28;20030;-75
2022/12/13 14:25:16;;;;;;;;;;;0.30;99.90;;;;;;5068650;28;19916;-76
2022/12/13 14:27:52;;;;;;;;;;;0.30;99.90;;;;;;5067789;28;19999;-76
2022/12/13 14:30:19;;;;;;;;;;;0.20;99.90;;;;;;5068416;28;20482;-76
2022/12/13 14:32:46;;;;;;;;;;;0.20;99.90;;;;;;5067925;28;19962;-77
2022/12/13 14:35:20;;;;;;;;;;;0.10;99.90;;;;;;5067521;28;19923;-77